Stena Europe — VSTA3 — position and weather

sailwx.info

Track history (hours):
 
Tides and Currents Weather Stations Pressure Air Temp Water Temp Dewpoint Dewpoint Depression Visibility Wind Speed Wind Dir Waves Ship Positions

Stena Europe

Operator: Stena Line

Last reported at 2017-Apr-27 21:16 UTC. Time now 2017-Apr-28 02:30 UTC.
Position N 52°10' W 005°48'.

Length 149 m; draft 6 m.

Type: Passenger vessel. MMSI: 235004539.

Date/timePositionNaut miles runAvg speedWind from/ knotsBaromVisibWave heightAir tempDewpointWater temp
2017-Apr-27 21:16N 52°10' W 005°48'417.4
2017-Apr-27 21:01N 52°11' W 005°55'917.3
2017-Apr-27 20:31N 52°13' W 006°09'714.7
2017-Apr-27 20:00N 52°15' W 006°20'0 0.3
2017-Apr-27 19:30N 52°15' W 006°20'0 0.0
2017-Apr-27 19:00N 52°15' W 006°20'0 0.0
2017-Apr-27 18:30N 52°15' W 006°20'0 0.0
2017-Apr-27 18:01N 52°15' W 006°20'0 0.0
2017-Apr-27 17:30N 52°15' W 006°20'0 0.0
2017-Apr-27 17:00N 52°15' W 006°20'1 2.1
2017-Apr-27 16:30N 52°15' W 006°19'917.4
2017-Apr-27 16:01N 52°13' W 006°05'917.6
2017-Apr-27 15:30N 52°11' W 005°51'1 0.2
2017-Apr-27 09:01N 52°11' W 005°53'119.4
2017-Apr-27 08:59N 52°11' W 005°54'919.3
2017-Apr-27 08:30N 52°13' W 006°09'714.6
2017-Apr-27 08:00N 52°15' W 006°20'0 0.0
2017-Apr-27 07:30N 52°15' W 006°20'0 0.0
2017-Apr-27 07:00N 52°15' W 006°20'0 0.0
2017-Apr-27 06:30N 52°15' W 006°20'0 0.0
2017-Apr-27 06:00N 52°15' W 006°20'0 0.0
2017-Apr-27 05:30N 52°15' W 006°20'1 1.6
2017-Apr-27 05:00N 52°16' W 006°19'816.7
2017-Apr-27 04:30N 52°13' W 006°06'816.2
2017-Apr-27 04:00N 52°11' W 005°53'2 0.3
2017-Apr-26 21:02N 52°11' W 005°56'216.8
2017-Apr-26 20:53N 52°12' W 006°00'616.8
2017-Apr-26 20:30N 52°14' W 006°10'612.5
2017-Apr-26 20:00N 52°15' W 006°20'0 0.0
2017-Apr-26 19:30N 52°15' W 006°20'0 0.0
2017-Apr-26 19:00N 52°15' W 006°20'0 0.0
2017-Apr-26 18:30N 52°15' W 006°20'0 0.0
2017-Apr-26 18:00N 52°15' W 006°20'0 0.0
2017-Apr-26 17:30N 52°15' W 006°20'3 7.0
2017-Apr-26 17:00N 52°14' W 006°15'918.2
2017-Apr-26 16:30N 52°12' W 006°00'1018.2
2017-Apr-26 15:59N 52°10' W 005°45'12 1.7
2017-Apr-26 08:34N 52°13' W 006°05'117.1
2017-Apr-26 08:30N 52°13' W 006°06'917.5
2017-Apr-26 08:00N 52°16' W 006°20'0 0.7
2017-Apr-26 07:31N 52°15' W 006°20'0 0.0
2017-Apr-26 07:00N 52°15' W 006°20'0 0.0
2017-Apr-26 06:30N 52°15' W 006°20'0 0.0
2017-Apr-26 06:00N 52°15' W 006°20'0 0.0
2017-Apr-26 05:30N 52°15' W 006°20'2 4.7
2017-Apr-26 05:01N 52°15' W 006°16'816.2
2017-Apr-26 04:30N 52°13' W 006°04'815.0
2017-Apr-26 04:00N 52°11' W 005°52'6 0.8
2017-Apr-25 20:58N 52°12' W 006°01'918.3
2017-Apr-25 20:31N 52°14' W 006°15'4 7.1
2017-Apr-25 20:00N 52°15' W 006°20'0 0.0
2017-Apr-25 19:31N 52°15' W 006°20'0 0.0
2017-Apr-25 19:00N 52°15' W 006°20'0 0.0
2017-Apr-25 18:31N 52°15' W 006°20'0 0.0
2017-Apr-25 18:01N 52°15' W 006°20'0 0.0
2017-Apr-25 17:30N 52°15' W 006°20'0 0.0
2017-Apr-25 17:01N 52°15' W 006°20'510.2
2017-Apr-25 16:30N 52°14' W 006°12'816.1
2017-Apr-25 16:01N 52°12' W 005°59'816.0
2017-Apr-25 15:30N 52°10' W 005°46'10 1.5
2017-Apr-25 08:53N 52°12' W 006°02'718.0
2017-Apr-25 08:31N 52°14' W 006°13'5 9.3
2017-Apr-25 08:00N 52°15' W 006°20'0 0.0
2017-Apr-25 07:30N 52°15' W 006°20'0 0.0
2017-Apr-25 07:00N 52°15' W 006°20'0 0.0
2017-Apr-25 06:30N 52°15' W 006°20'1 2.1
2017-Apr-25 06:00N 52°16' W 006°19'1 1.7
2017-Apr-25 05:30N 52°16' W 006°20'612.0
2017-Apr-25 05:00N 52°14' W 006°11'713.2
2017-Apr-25 04:30N 52°12' W 006°01'917.2
2017-Apr-25 04:00N 52°10' W 005°47'11 1.7
2017-Apr-24 21:23N 52°13' W 006°04'717.9
2017-Apr-24 21:00N 52°14' W 006°15'3 6.6
2017-Apr-24 20:30N 52°15' W 006°20'0 0.0
2017-Apr-24 20:00N 52°15' W 006°20'0 0.0
2017-Apr-24 19:30N 52°15' W 006°20'0 0.0
2017-Apr-24 19:00N 52°15' W 006°20'0 0.0
2017-Apr-24 18:30N 52°15' W 006°20'0 0.0
2017-Apr-24 18:00N 52°15' W 006°20'0 0.0
2017-Apr-24 17:30N 52°15' W 006°20'0 0.1
2017-Apr-24 17:00N 52°15' W 006°20'612.3
2017-Apr-24 16:31N 52°14' W 006°10'714.8
2017-Apr-24 16:00N 52°13' W 005°59'714.0
2017-Apr-24 15:30N 52°12' W 005°47'6 0.8
2017-Apr-24 08:47N 52°12' W 005°56'518.9
2017-Apr-24 08:30N 52°13' W 006°05'918.7
2017-Apr-24 08:01N 52°16' W 006°19'1 1.6
2017-Apr-24 07:31N 52°15' W 006°20'0 0.0
2017-Apr-24 07:01N 52°15' W 006°20'0 0.0
2017-Apr-24 06:30N 52°15' W 006°20'0 0.0
2017-Apr-24 06:01N 52°15' W 006°20'0 0.0
2017-Apr-24 05:30N 52°15' W 006°20'3 6.0
2017-Apr-24 05:01N 52°14' W 006°16'917.8
2017-Apr-24 04:31N 52°13' W 006°01'713.8
2017-Apr-24 04:00N 52°14' W 005°50'510.6
2017-Apr-24 03:30N 52°10' W 005°43'2 0.3
2017-Apr-23 21:26N 52°10' W 005°46'717.4
2017-Apr-23 21:01N 52°12' W 005°57'917.1
2017-Apr-23 20:31N 52°14' W 006°11'611.6
2017-Apr-23 20:00N 52°15' W 006°20'0 0.0
2017-Apr-23 19:30N 52°15' W 006°20'0 0.0
2017-Apr-23 19:00N 52°15' W 006°20'0 0.0
2017-Apr-23 18:30N 52°15' W 006°20'0 0.0
2017-Apr-23 18:00N 52°15' W 006°20'0 0.0
2017-Apr-23 17:30N 52°15' W 006°20'0 0.0
2017-Apr-23 17:00N 52°15' W 006°20'4 8.7
2017-Apr-23 16:30N 52°14' W 006°13'816.8
2017-Apr-23 16:00N 52°12' W 005°60'917.5
2017-Apr-23 15:30N 52°10' W 005°46'9 1.4
2017-Apr-23 08:44N 52°12' W 006°01'417.1
2017-Apr-23 08:30N 52°13' W 006°07'917.4
2017-Apr-23 08:01N 52°16' W 006°20'0 0.6
2017-Apr-23 07:30N 52°15' W 006°20'0 0.0
2017-Apr-23 07:00N 52°15' W 006°20'0 0.0
2017-Apr-23 06:30N 52°15' W 006°20'0 0.0
2017-Apr-23 06:00N 52°15' W 006°20'0 0.0
2017-Apr-23 05:30N 52°15' W 006°20'3 5.2
2017-Apr-23 05:01N 52°15' W 006°16'815.2
2017-Apr-23 04:31N 52°13' W 006°04'714.5
2017-Apr-23 04:01N 52°11' W 005°53'4 0.6
2017-Apr-22 21:02N 52°13' W 005°58'118.3
2017-Apr-22 21:00N 52°13' W 005°59'918.7
2017-Apr-22 20:30N 52°14' W 006°15'4 7.2
2017-Apr-22 20:00N 52°15' W 006°20'0 0.0
2017-Apr-22 19:30N 52°15' W 006°20'0 0.0
2017-Apr-22 19:01N 52°15' W 006°20'0 0.0
2017-Apr-22 18:31N 52°15' W 006°20'0 0.0
2017-Apr-22 18:00N 52°15' W 006°20'0 0.0
2017-Apr-22 17:31N 52°15' W 006°20'0 0.0
2017-Apr-22 17:01N 52°15' W 006°20'4 8.1
2017-Apr-22 16:31N 52°14' W 006°14'816.8
2017-Apr-22 16:01N 52°12' W 006°01'815.6
2017-Apr-22 15:30N 52°10' W 005°48'4 0.6
2017-Apr-22 09:03N 52°11' W 005°55'118.5
2017-Apr-22 08:59N 52°11' W 005°57'918.5
2017-Apr-22 08:30N 52°14' W 006°11'612.4
2017-Apr-22 08:00N 52°15' W 006°20'0 0.0
2017-Apr-22 07:30N 52°15' W 006°20'0 0.0
2017-Apr-22 07:00N 52°15' W 006°20'0 0.0
2017-Apr-22 06:30N 52°15' W 006°20'0 0.0
2017-Apr-22 06:00N 52°15' W 006°20'0 0.0
2017-Apr-22 05:30N 52°15' W 006°20'3 6.9
2017-Apr-22 05:01N 52°14' W 006°15'815.0
2017-Apr-22 04:31N 52°13' W 006°03'714.0
2017-Apr-22 04:00N 52°13' W 005°51'2 0.3
2017-Apr-21 21:09N 52°11' W 005°54'217.1
2017-Apr-21 21:00N 52°12' W 005°57'816.9
2017-Apr-21 20:31N 52°14' W 006°11'612.0
2017-Apr-21 20:00N 52°15' W 006°20'0 0.0
2017-Apr-21 19:30N 52°15' W 006°20'0 0.0
2017-Apr-21 19:00N 52°15' W 006°20'0 0.0
2017-Apr-21 18:30N 52°15' W 006°20'0 0.0
2017-Apr-21 18:00N 52°15' W 006°20'0 0.0
2017-Apr-21 17:31N 52°15' W 006°20'0 0.0
2017-Apr-21 17:01N 52°15' W 006°20'3 6.8
2017-Apr-21 16:30N 52°14' W 006°15'816.9
2017-Apr-21 16:01N 52°12' W 006°01'816.8
2017-Apr-21 15:30N 52°11' W 005°48'1 0.2
2017-Apr-21 09:14N 52°10' W 005°49'418.7
2017-Apr-21 09:00N 52°11' W 005°56'918.6
2017-Apr-21 08:30N 52°13' W 006°11'612.0
2017-Apr-21 08:00N 52°15' W 006°20'0 0.0
2017-Apr-21 07:30N 52°15' W 006°20'0 0.0
2017-Apr-21 07:00N 52°15' W 006°20'0 0.0
2017-Apr-21 06:30N 52°15' W 006°20'0 0.0
2017-Apr-21 06:00N 52°15' W 006°20'0 0.0
2017-Apr-21 05:30N 52°15' W 006°20'3 5.3
2017-Apr-21 05:01N 52°15' W 006°16'918.4
2017-Apr-21 04:31N 52°12' W 006°02'918.7
2017-Apr-21 04:01N 52°10' W 005°47'918.7
2017-Apr-21 03:30N 52°08' W 005°32'12 2.3
2017-Apr-20 22:21N 52°10' W 005°51'718.8
2017-Apr-20 22:00N 52°12' W 006°01'918.4
2017-Apr-20 21:30N 52°14' W 006°15'3 6.2
2017-Apr-20 21:00N 52°15' W 006°20'0 0.0
2017-Apr-20 20:30N 52°15' W 006°20'0 0.0
2017-Apr-20 20:00N 52°15' W 006°20'0 0.0
2017-Apr-20 19:30N 52°15' W 006°20'0 0.0
2017-Apr-20 19:00N 52°15' W 006°20'0 0.0
2017-Apr-20 18:30N 52°15' W 006°20'0 0.0
2017-Apr-20 18:00N 52°15' W 006°20'0 0.0
2017-Apr-20 17:30N 52°15' W 006°20'2 3.8
2017-Apr-20 17:00N 52°15' W 006°17'918.5
2017-Apr-20 16:30N 52°12' W 006°03'918.8
2017-Apr-20 16:00N 52°10' W 005°48'2 0.2
2017-Apr-20 09:16N 52°11' W 005°50'417.0
2017-Apr-20 09:00N 52°12' W 005°57'816.7
2017-Apr-20 08:31N 52°13' W 006°10'612.6
2017-Apr-20 08:00N 52°15' W 006°20'0 0.0
2017-Apr-20 07:30N 52°15' W 006°20'0 0.0
2017-Apr-20 07:00N 52°15' W 006°20'0 0.0
2017-Apr-20 06:30N 52°15' W 006°20'0 0.0
2017-Apr-20 06:00N 52°15' W 006°20'0 0.0
2017-Apr-20 05:30N 52°15' W 006°20'3 6.3
2017-Apr-20 05:00N 52°14' W 006°15'714.3
2017-Apr-20 04:30N 52°13' W 006°04'714.6
2017-Apr-20 04:00N 52°11' W 005°53'21 3.8
2017-Apr-19 22:26N 52°06' W 005°19'2017.7
2017-Apr-19 21:18N 52°11' W 005°51'517.6
2017-Apr-19 21:00N 52°12' W 005°59'917.4
2017-Apr-19 20:30N 52°14' W 006°13'5 9.2
2017-Apr-19 20:00N 52°15' W 006°20'0 0.0
2017-Apr-19 19:30N 52°15' W 006°20'0 0.0
2017-Apr-19 19:00N 52°15' W 006°20'0 0.0
2017-Apr-19 18:30N 52°15' W 006°20'0 0.0
2017-Apr-19 18:00N 52°15' W 006°20'0 0.0
2017-Apr-19 17:30N 52°15' W 006°20'0 0.0
2017-Apr-19 17:00N 52°15' W 006°20'4 8.2
2017-Apr-19 16:30N 52°14' W 006°14'917.4
2017-Apr-19 16:00N 52°12' W 006°00'3 0.4
2017-Apr-19 08:58N 52°11' W 005°55'716.3
2017-Apr-19 08:30N 52°13' W 006°07'816.5
2017-Apr-19 08:01N 52°16' W 006°20'0 0.8
2017-Apr-19 07:30N 52°15' W 006°20'0 0.0
2017-Apr-19 07:00N 52°15' W 006°20'0 0.0
2017-Apr-19 06:30N 52°15' W 006°20'0 0.0
2017-Apr-19 06:00N 52°15' W 006°20'0 0.0
2017-Apr-19 05:31N 52°15' W 006°20'2 3.8
2017-Apr-19 05:01N 52°15' W 006°17'917.2
2017-Apr-19 04:30N 52°13' W 006°04'7 1.0
2017-Apr-18 21:11N 52°10' W 005°52'718.2
2017-Apr-18 20:47N 52°12' W 006°04'518.7
2017-Apr-18 20:30N 52°14' W 006°12'510.7
2017-Apr-18 20:00N 52°15' W 006°20'0 0.0
2017-Apr-18 19:30N 52°15' W 006°20'0 0.0
2017-Apr-18 19:00N 52°15' W 006°20'0 0.0
2017-Apr-18 18:30N 52°15' W 006°20'0 0.0
2017-Apr-18 18:00N 52°15' W 006°20'0 0.0
2017-Apr-18 17:30N 52°15' W 006°20'0 0.1
2017-Apr-18 17:00N 52°15' W 006°20'510.5
2017-Apr-18 16:31N 52°14' W 006°12'714.6
2017-Apr-18 16:01N 52°12' W 006°00'815.6
2017-Apr-18 15:29N 52°10' W 005°48'  
Track history (hours):
 
Tides and Currents Weather Stations Pressure Air Temp Water Temp Dewpoint Dewpoint Depression Visibility Wind Speed Wind Dir Waves Ship Positions

Stena Europe

Operator: Stena Line

Last reported at 2017-Apr-27 21:16 UTC. Time now 2017-Apr-28 02:30 UTC.
Position N 52°10' W 005°48'.

Length 149 m; draft 6 m.

Type: Passenger vessel. MMSI: 235004539.

Date/timePositionNaut miles runAvg speedWind from/ knotsBaromVisibWave heightAir tempDewpointWater temp
2017-Apr-27 21:16N 52°10' W 005°48'417.4
2017-Apr-27 21:01N 52°11' W 005°55'917.3
2017-Apr-27 20:31N 52°13' W 006°09'714.7
2017-Apr-27 20:00N 52°15' W 006°20'0 0.3
2017-Apr-27 19:30N 52°15' W 006°20'0 0.0
2017-Apr-27 19:00N 52°15' W 006°20'0 0.0
2017-Apr-27 18:30N 52°15' W 006°20'0 0.0
2017-Apr-27 18:01N 52°15' W 006°20'0 0.0
2017-Apr-27 17:30N 52°15' W 006°20'0 0.0
2017-Apr-27 17:00N 52°15' W 006°20'1 2.1
2017-Apr-27 16:30N 52°15' W 006°19'917.4
2017-Apr-27 16:01N 52°13' W 006°05'917.6
2017-Apr-27 15:30N 52°11' W 005°51'1 0.2
2017-Apr-27 09:01N 52°11' W 005°53'119.4
2017-Apr-27 08:59N 52°11' W 005°54'919.3
2017-Apr-27 08:30N 52°13' W 006°09'714.6
2017-Apr-27 08:00N 52°15' W 006°20'0 0.0
2017-Apr-27 07:30N 52°15' W 006°20'0 0.0
2017-Apr-27 07:00N 52°15' W 006°20'0 0.0
2017-Apr-27 06:30N 52°15' W 006°20'0 0.0
2017-Apr-27 06:00N 52°15' W 006°20'0 0.0
2017-Apr-27 05:30N 52°15' W 006°20'1 1.6
2017-Apr-27 05:00N 52°16' W 006°19'816.7
2017-Apr-27 04:30N 52°13' W 006°06'816.2
2017-Apr-27 04:00N 52°11' W 005°53'2 0.3
2017-Apr-26 21:02N 52°11' W 005°56'216.8
2017-Apr-26 20:53N 52°12' W 006°00'616.8
2017-Apr-26 20:30N 52°14' W 006°10'612.5
2017-Apr-26 20:00N 52°15' W 006°20'0 0.0
2017-Apr-26 19:30N 52°15' W 006°20'0 0.0
2017-Apr-26 19:00N 52°15' W 006°20'0 0.0
2017-Apr-26 18:30N 52°15' W 006°20'0 0.0
2017-Apr-26 18:00N 52°15' W 006°20'0 0.0
2017-Apr-26 17:30N 52°15' W 006°20'3 7.0
2017-Apr-26 17:00N 52°14' W 006°15'918.2
2017-Apr-26 16:30N 52°12' W 006°00'1018.2
2017-Apr-26 15:59N 52°10' W 005°45'12 1.7
2017-Apr-26 08:34N 52°13' W 006°05'117.1
2017-Apr-26 08:30N 52°13' W 006°06'917.5
2017-Apr-26 08:00N 52°16' W 006°20'0 0.7
2017-Apr-26 07:31N 52°15' W 006°20'0 0.0
2017-Apr-26 07:00N 52°15' W 006°20'0 0.0
2017-Apr-26 06:30N 52°15' W 006°20'0 0.0
2017-Apr-26 06:00N 52°15' W 006°20'0 0.0
2017-Apr-26 05:30N 52°15' W 006°20'2 4.7
2017-Apr-26 05:01N 52°15' W 006°16'816.2
2017-Apr-26 04:30N 52°13' W 006°04'815.0
2017-Apr-26 04:00N 52°11' W 005°52'6 0.8
2017-Apr-25 20:58N 52°12' W 006°01'918.3
2017-Apr-25 20:31N 52°14' W 006°15'4 7.1
2017-Apr-25 20:00N 52°15' W 006°20'0 0.0
2017-Apr-25 19:31N 52°15' W 006°20'0 0.0
2017-Apr-25 19:00N 52°15' W 006°20'0 0.0
2017-Apr-25 18:31N 52°15' W 006°20'0 0.0
2017-Apr-25 18:01N 52°15' W 006°20'0 0.0
2017-Apr-25 17:30N 52°15' W 006°20'0 0.0
2017-Apr-25 17:01N 52°15' W 006°20'510.2
2017-Apr-25 16:30N 52°14' W 006°12'816.1
2017-Apr-25 16:01N 52°12' W 005°59'816.0
2017-Apr-25 15:30N 52°10' W 005°46'10 1.5
2017-Apr-25 08:53N 52°12' W 006°02'718.0
2017-Apr-25 08:31N 52°14' W 006°13'5 9.3
2017-Apr-25 08:00N 52°15' W 006°20'0 0.0
2017-Apr-25 07:30N 52°15' W 006°20'0 0.0
2017-Apr-25 07:00N 52°15' W 006°20'0 0.0
2017-Apr-25 06:30N 52°15' W 006°20'1 2.1
2017-Apr-25 06:00N 52°16' W 006°19'1 1.7
2017-Apr-25 05:30N 52°16' W 006°20'612.0
2017-Apr-25 05:00N 52°14' W 006°11'713.2
2017-Apr-25 04:30N 52°12' W 006°01'917.2
2017-Apr-25 04:00N 52°10' W 005°47'11 1.7
2017-Apr-24 21:23N 52°13' W 006°04'717.9
2017-Apr-24 21:00N 52°14' W 006°15'3 6.6
2017-Apr-24 20:30N 52°15' W 006°20'0 0.0
2017-Apr-24 20:00N 52°15' W 006°20'0 0.0
2017-Apr-24 19:30N 52°15' W 006°20'0 0.0
2017-Apr-24 19:00N 52°15' W 006°20'0 0.0
2017-Apr-24 18:30N 52°15' W 006°20'0 0.0
2017-Apr-24 18:00N 52°15' W 006°20'0 0.0
2017-Apr-24 17:30N 52°15' W 006°20'0 0.1
2017-Apr-24 17:00N 52°15' W 006°20'612.3
2017-Apr-24 16:31N 52°14' W 006°10'714.8
2017-Apr-24 16:00N 52°13' W 005°59'714.0
2017-Apr-24 15:30N 52°12' W 005°47'6 0.8
2017-Apr-24 08:47N 52°12' W 005°56'518.9
2017-Apr-24 08:30N 52°13' W 006°05'918.7
2017-Apr-24 08:01N 52°16' W 006°19'1 1.6
2017-Apr-24 07:31N 52°15' W 006°20'0 0.0
2017-Apr-24 07:01N 52°15' W 006°20'0 0.0
2017-Apr-24 06:30N 52°15' W 006°20'0 0.0
2017-Apr-24 06:01N 52°15' W 006°20'0 0.0
2017-Apr-24 05:30N 52°15' W 006°20'3 6.0
2017-Apr-24 05:01N 52°14' W 006°16'917.8
2017-Apr-24 04:31N 52°13' W 006°01'713.8
2017-Apr-24 04:00N 52°14' W 005°50'510.6
2017-Apr-24 03:30N 52°10' W 005°43'2 0.3
2017-Apr-23 21:26N 52°10' W 005°46'717.4
2017-Apr-23 21:01N 52°12' W 005°57'917.1
2017-Apr-23 20:31N 52°14' W 006°11'611.6
2017-Apr-23 20:00N 52°15' W 006°20'0 0.0
2017-Apr-23 19:30N 52°15' W 006°20'0 0.0
2017-Apr-23 19:00N 52°15' W 006°20'0 0.0
2017-Apr-23 18:30N 52°15' W 006°20'0 0.0
2017-Apr-23 18:00N 52°15' W 006°20'0 0.0
2017-Apr-23 17:30N 52°15' W 006°20'0 0.0
2017-Apr-23 17:00N 52°15' W 006°20'4 8.7
2017-Apr-23 16:30N 52°14' W 006°13'816.8
2017-Apr-23 16:00N 52°12' W 005°60'917.5
2017-Apr-23 15:30N 52°10' W 005°46'9 1.4
2017-Apr-23 08:44N 52°12' W 006°01'417.1
2017-Apr-23 08:30N 52°13' W 006°07'917.4
2017-Apr-23 08:01N 52°16' W 006°20'0 0.6
2017-Apr-23 07:30N 52°15' W 006°20'0 0.0
2017-Apr-23 07:00N 52°15' W 006°20'0 0.0
2017-Apr-23 06:30N 52°15' W 006°20'0 0.0
2017-Apr-23 06:00N 52°15' W 006°20'0 0.0
2017-Apr-23 05:30N 52°15' W 006°20'3 5.2
2017-Apr-23 05:01N 52°15' W 006°16'815.2
2017-Apr-23 04:31N 52°13' W 006°04'714.5
2017-Apr-23 04:01N 52°11' W 005°53'4 0.6
2017-Apr-22 21:02N 52°13' W 005°58'118.3
2017-Apr-22 21:00N 52°13' W 005°59'918.7
2017-Apr-22 20:30N 52°14' W 006°15'4 7.2
2017-Apr-22 20:00N 52°15' W 006°20'0 0.0
2017-Apr-22 19:30N 52°15' W 006°20'0 0.0
2017-Apr-22 19:01N 52°15' W 006°20'0 0.0
2017-Apr-22 18:31N 52°15' W 006°20'0 0.0
2017-Apr-22 18:00N 52°15' W 006°20'0 0.0
2017-Apr-22 17:31N 52°15' W 006°20'0 0.0
2017-Apr-22 17:01N 52°15' W 006°20'4 8.1
2017-Apr-22 16:31N 52°14' W 006°14'816.8
2017-Apr-22 16:01N 52°12' W 006°01'815.6
2017-Apr-22 15:30N 52°10' W 005°48'4 0.6
2017-Apr-22 09:03N 52°11' W 005°55'118.5
2017-Apr-22 08:59N 52°11' W 005°57'918.5
2017-Apr-22 08:30N 52°14' W 006°11'612.4
2017-Apr-22 08:00N 52°15' W 006°20'0 0.0
2017-Apr-22 07:30N 52°15' W 006°20'0 0.0
2017-Apr-22 07:00N 52°15' W 006°20'0 0.0
2017-Apr-22 06:30N 52°15' W 006°20'0 0.0
2017-Apr-22 06:00N 52°15' W 006°20'0 0.0
2017-Apr-22 05:30N 52°15' W 006°20'3 6.9
2017-Apr-22 05:01N 52°14' W 006°15'815.0
2017-Apr-22 04:31N 52°13' W 006°03'714.0
2017-Apr-22 04:00N 52°13' W 005°51'2 0.3
2017-Apr-21 21:09N 52°11' W 005°54'217.1
2017-Apr-21 21:00N 52°12' W 005°57'816.9
2017-Apr-21 20:31N 52°14' W 006°11'612.0
2017-Apr-21 20:00N 52°15' W 006°20'0 0.0
2017-Apr-21 19:30N 52°15' W 006°20'0 0.0
2017-Apr-21 19:00N 52°15' W 006°20'0 0.0
2017-Apr-21 18:30N 52°15' W 006°20'0 0.0
2017-Apr-21 18:00N 52°15' W 006°20'0 0.0
2017-Apr-21 17:31N 52°15' W 006°20'0 0.0
2017-Apr-21 17:01N 52°15' W 006°20'3 6.8
2017-Apr-21 16:30N 52°14' W 006°15'816.9
2017-Apr-21 16:01N 52°12' W 006°01'816.8
2017-Apr-21 15:30N 52°11' W 005°48'1 0.2
2017-Apr-21 09:14N 52°10' W 005°49'418.7
2017-Apr-21 09:00N 52°11' W 005°56'918.6
2017-Apr-21 08:30N 52°13' W 006°11'612.0
2017-Apr-21 08:00N 52°15' W 006°20'0 0.0
2017-Apr-21 07:30N 52°15' W 006°20'0 0.0
2017-Apr-21 07:00N 52°15' W 006°20'0 0.0
2017-Apr-21 06:30N 52°15' W 006°20'0 0.0
2017-Apr-21 06:00N 52°15' W 006°20'0 0.0
2017-Apr-21 05:30N 52°15' W 006°20'3 5.3
2017-Apr-21 05:01N 52°15' W 006°16'918.4
2017-Apr-21 04:31N 52°12' W 006°02'918.7
2017-Apr-21 04:01N 52°10' W 005°47'918.7
2017-Apr-21 03:30N 52°08' W 005°32'12 2.3
2017-Apr-20 22:21N 52°10' W 005°51'718.8
2017-Apr-20 22:00N 52°12' W 006°01'918.4
2017-Apr-20 21:30N 52°14' W 006°15'3 6.2
2017-Apr-20 21:00N 52°15' W 006°20'0 0.0
2017-Apr-20 20:30N 52°15' W 006°20'0 0.0
2017-Apr-20 20:00N 52°15' W 006°20'0 0.0
2017-Apr-20 19:30N 52°15' W 006°20'0 0.0
2017-Apr-20 19:00N 52°15' W 006°20'0 0.0
2017-Apr-20 18:30N 52°15' W 006°20'0 0.0
2017-Apr-20 18:00N 52°15' W 006°20'0 0.0
2017-Apr-20 17:30N 52°15' W 006°20'2 3.8
2017-Apr-20 17:00N 52°15' W 006°17'918.5
2017-Apr-20 16:30N 52°12' W 006°03'918.8
2017-Apr-20 16:00N 52°10' W 005°48'2 0.2
2017-Apr-20 09:16N 52°11' W 005°50'417.0
2017-Apr-20 09:00N 52°12' W 005°57'816.7
2017-Apr-20 08:31N 52°13' W 006°10'612.6
2017-Apr-20 08:00N 52°15' W 006°20'0 0.0
2017-Apr-20 07:30N 52°15' W 006°20'0 0.0
2017-Apr-20 07:00N 52°15' W 006°20'0 0.0
2017-Apr-20 06:30N 52°15' W 006°20'0 0.0
2017-Apr-20 06:00N 52°15' W 006°20'0 0.0
2017-Apr-20 05:30N 52°15' W 006°20'3 6.3
2017-Apr-20 05:00N 52°14' W 006°15'714.3
2017-Apr-20 04:30N 52°13' W 006°04'714.6
2017-Apr-20 04:00N 52°11' W 005°53'21 3.8
2017-Apr-19 22:26N 52°06' W 005°19'2017.7
2017-Apr-19 21:18N 52°11' W 005°51'517.6
2017-Apr-19 21:00N 52°12' W 005°59'917.4
2017-Apr-19 20:30N 52°14' W 006°13'5 9.2
2017-Apr-19 20:00N 52°15' W 006°20'0 0.0
2017-Apr-19 19:30N 52°15' W 006°20'0 0.0
2017-Apr-19 19:00N 52°15' W 006°20'0 0.0
2017-Apr-19 18:30N 52°15' W 006°20'0 0.0
2017-Apr-19 18:00N 52°15' W 006°20'0 0.0
2017-Apr-19 17:30N 52°15' W 006°20'0 0.0
2017-Apr-19 17:00N 52°15' W 006°20'4 8.2
2017-Apr-19 16:30N 52°14' W 006°14'917.4
2017-Apr-19 16:00N 52°12' W 006°00'3 0.4
2017-Apr-19 08:58N 52°11' W 005°55'716.3
2017-Apr-19 08:30N 52°13' W 006°07'816.5
2017-Apr-19 08:01N 52°16' W 006°20'0 0.8
2017-Apr-19 07:30N 52°15' W 006°20'0 0.0
2017-Apr-19 07:00N 52°15' W 006°20'0 0.0
2017-Apr-19 06:30N 52°15' W 006°20'0 0.0
2017-Apr-19 06:00N 52°15' W 006°20'0 0.0
2017-Apr-19 05:31N 52°15' W 006°20'2 3.8
2017-Apr-19 05:01N 52°15' W 006°17'917.2
2017-Apr-19 04:30N 52°13' W 006°04'7 1.0
2017-Apr-18 21:11N 52°10' W 005°52'718.2
2017-Apr-18 20:47N 52°12' W 006°04'518.7
2017-Apr-18 20:30N 52°14' W 006°12'510.7
2017-Apr-18 20:00N 52°15' W 006°20'0 0.0
2017-Apr-18 19:30N 52°15' W 006°20'0 0.0
2017-Apr-18 19:00N 52°15' W 006°20'0 0.0
2017-Apr-18 18:30N 52°15' W 006°20'0 0.0
2017-Apr-18 18:00N 52°15' W 006°20'0 0.0
2017-Apr-18 17:30N 52°15' W 006°20'0 0.1
2017-Apr-18 17:00N 52°15' W 006°20'510.5
2017-Apr-18 16:31N 52°14' W 006°12'714.6
2017-Apr-18 16:01N 52°12' W 006°00'815.6
2017-Apr-18 15:29N 52°10' W 005°48'  

Dump ship's entire track history